createdAt,value
2022-11-06T00:04:00.854Z,20.62
2022-11-06T00:09:08.026Z,27.92
2022-11-06T00:14:09.471Z,29.83
2022-11-06T00:19:16.367Z,30.08
2022-11-06T00:24:19.989Z,23.33
2022-11-06T00:29:20.887Z,20.50
2022-11-06T00:34:21.753Z,23.52
2022-11-06T00:39:22.484Z,25.25
2022-11-06T00:44:23.222Z,23.40
2022-11-06T00:49:23.985Z,27.25
2022-11-06T00:54:28.296Z,22.60
2022-11-06T00:59:29.016Z,30.95
2022-11-06T01:04:32.333Z,27.00
2022-11-06T01:14:38.582Z,20.50
2022-11-06T01:19:39.561Z,26.33
2022-11-06T01:24:45.917Z,23.23
2022-11-06T01:29:46.698Z,27.25
2022-11-06T01:34:50.229Z,27.13
2022-11-06T01:39:51.166Z,25.50
2022-11-06T01:46:44.527Z,21.48
2022-11-06T01:51:57.013Z,23.17
2022-11-06T01:56:59.831Z,22.77
2022-11-06T02:02:01.067Z,30.40
2022-11-06T02:07:03.839Z,32.95
2022-11-06T02:12:25.744Z,29.20
2022-11-06T02:18:18.879Z,26.87
2022-11-06T02:23:42.520Z,38.00
2022-11-06T02:28:52.143Z,22.33
2022-11-06T02:34:01.959Z,29.70
2022-11-06T02:39:13.858Z,31.05
2022-11-06T02:44:19.728Z,23.05
2022-11-06T02:51:20.851Z,30.40
2022-11-06T02:56:28.523Z,34.90
2022-11-06T03:01:34.257Z,37.45
2022-11-06T03:06:41.203Z,28.77
2022-11-06T03:11:58.232Z,29.42
2022-11-06T03:17:08.424Z,33.53
2022-11-06T03:22:21.420Z,26.83
2022-11-06T03:27:31.497Z,25.12
2022-11-06T03:32:58.894Z,31.50
2022-11-06T03:38:08.833Z,33.15
2022-11-06T03:43:17.478Z,36.85
2022-11-06T03:48:28.481Z,32.63
2022-11-06T03:53:47.332Z,36.55
2022-11-06T03:58:49.632Z,32.60
2022-11-06T04:03:58.055Z,38.67
2022-11-06T04:09:23.221Z,34.25
2022-11-06T04:14:32.755Z,31.42
2022-11-06T04:19:33.524Z,31.42
2022-11-06T04:28:14.866Z,35.75
2022-11-06T04:33:51.392Z,27.10
2022-11-06T04:39:11.795Z,42.08
2022-11-06T04:44:28.476Z,33.50
2022-11-06T04:49:33.474Z,31.12
2022-11-06T04:54:44.036Z,31.73
2022-11-06T04:59:44.995Z,37.70
2022-11-06T05:04:49.261Z,38.55
2022-11-06T05:09:49.998Z,40.85
2022-11-06T05:14:54.661Z,33.38
2022-11-06T05:19:55.466Z,38.45
2022-11-06T05:24:56.349Z,32.53
2022-11-06T05:30:00.241Z,39.20
2022-11-06T05:35:04.061Z,36.30
2022-11-06T05:40:09.336Z,33.88
2022-11-06T05:45:12.233Z,38.55
2022-11-06T05:50:16.422Z,36.80
2022-11-06T05:55:17.281Z,41.65
2022-11-06T06:00:18.181Z,37.47
2022-11-06T06:05:18.942Z,37.65
2022-11-06T06:10:22.530Z,37.85
2022-11-06T06:15:23.254Z,42.45
2022-11-06T06:20:25.483Z,36.33
2022-11-06T06:25:28.130Z,41.65
2022-11-06T06:30:31.761Z,41.88
2022-11-06T06:35:33.850Z,34.72
2022-11-06T06:40:34.825Z,39.97
2022-11-06T06:45:35.571Z,38.50
2022-11-06T06:50:39.735Z,36.30
2022-11-06T06:55:44.456Z,34.40
2022-11-06T07:00:57.215Z,33.95
2022-11-06T07:06:01.072Z,23.02
2022-11-06T07:11:04.723Z,24.12
2022-11-06T07:16:08.018Z,25.23
2022-11-06T07:21:14.927Z,30.00
2022-11-06T07:26:15.870Z,21.48
2022-11-06T07:31:19.362Z,20.35
2022-11-06T07:36:20.098Z,18.65
2022-11-06T07:41:20.814Z,21.77
2022-11-06T07:46:21.586Z,19.92
2022-11-06T07:51:22.422Z,17.58
2022-11-06T07:56:23.217Z,15.45
2022-11-06T08:01:24.318Z,17.58
2022-11-06T08:06:25.444Z,14.63
2022-11-06T08:11:32.394Z,20.62
2022-11-06T08:16:33.232Z,17.23
2022-11-06T08:21:37.846Z,11.98
2022-11-06T08:26:41.630Z,11.68
2022-11-06T08:31:42.925Z,12.80
2022-11-06T08:36:49.253Z,18.27
2022-11-06T08:41:56.548Z,16.08
2022-11-06T08:46:57.638Z,15.90
2022-11-06T08:52:00.199Z,15.13
2022-11-06T08:57:03.797Z,9.50
2022-11-06T09:02:15.680Z,15.70
2022-11-06T09:07:16.722Z,13.60
2022-11-06T09:12:20.782Z,15.30
2022-11-06T09:17:27.251Z,15.43
2022-11-06T09:22:31.387Z,14.82
2022-11-06T09:27:32.216Z,14.80
2022-11-06T09:32:32.969Z,20.77
2022-11-06T09:37:35.453Z,17.05
2022-11-06T09:45:52.303Z,22.70
2022-11-06T09:51:14.157Z,14.23
2022-11-06T09:56:25.008Z,13.30
2022-11-06T10:01:37.824Z,15.82
2022-11-06T10:06:41.577Z,10.27
2022-11-06T10:11:58.453Z,12.40
2022-11-06T10:20:40.575Z,13.25
2022-11-06T10:26:18.335Z,12.77
2022-11-06T10:31:41.928Z,14.93
2022-11-06T10:37:19.672Z,11.05
2022-11-06T10:42:33.821Z,10.20
2022-11-06T10:47:44.878Z,14.93
2022-11-06T10:53:03.052Z,16.40
2022-11-06T10:58:16.703Z,15.05
2022-11-06T11:03:33.699Z,17.17
2022-11-06T11:08:52.367Z,16.27
2022-11-06T11:14:13.728Z,21.10
2022-11-06T11:19:40.606Z,19.73
2022-11-06T11:25:07.020Z,25.77
2022-11-06T11:30:38.216Z,22.73
2022-11-06T11:35:39.760Z,27.92
2022-11-06T11:40:40.926Z,23.25
2022-11-06T11:45:41.888Z,24.65
2022-11-06T11:50:43.445Z,24.45
2022-11-06T11:55:47.243Z,19.77
2022-11-06T12:01:04.523Z,21.83
2022-11-06T12:06:11.947Z,19.30
2022-11-06T12:11:19.974Z,18.52
2022-11-06T12:16:20.956Z,20.23
2022-11-06T12:21:31.353Z,21.12
2022-11-06T12:26:37.788Z,17.08
2022-11-06T12:31:53.633Z,18.75
2022-11-06T12:37:10.132Z,21.48
2022-11-06T12:42:18.603Z,20.67
2022-11-06T12:47:36.753Z,25.90
2022-11-06T12:53:07.371Z,23.73
2022-11-06T12:59:12.511Z,22.27
2022-11-06T13:04:31.835Z,24.42
2022-11-06T13:09:45.814Z,22.58
2022-11-06T13:22:22.030Z,24.90
2022-11-06T13:29:18.117Z,28.17
2022-11-06T13:34:29.996Z,32.15
2022-11-06T13:39:36.669Z,27.37
2022-11-06T13:44:38.200Z,32.95
2022-11-06T13:50:25.540Z,26.12
2022-11-06T13:57:02.643Z,41.17
2022-11-06T14:03:45.839Z,56.42
2022-11-06T14:09:03.475Z,37.45
2022-11-06T14:14:13.670Z,24.98
2022-11-06T14:19:29.608Z,24.40
2022-11-06T14:24:38.889Z,21.98
2022-11-06T14:29:53.945Z,23.92
2022-11-06T14:34:54.689Z,29.48
2022-11-06T14:40:05.944Z,22.52
2022-11-06T14:45:20.166Z,24.90
2022-11-06T14:51:26.337Z,22.30
2022-11-06T14:56:33.635Z,23.17
2022-11-06T15:01:37.512Z,26.00
2022-11-06T15:06:42.929Z,25.00
2022-11-06T15:12:17.026Z,27.55
2022-11-06T15:17:21.116Z,21.05
2022-11-06T15:22:39.203Z,20.62
2022-11-06T15:27:52.445Z,24.05
2022-11-06T15:32:54.320Z,19.48
2022-11-06T15:38:09.340Z,16.48
2022-11-06T15:44:12.388Z,19.05
2022-11-06T15:49:19.304Z,19.67
2022-11-06T15:54:36.039Z,17.12
2022-11-06T15:59:39.372Z,17.37
2022-11-06T16:04:44.377Z,13.27
2022-11-06T16:09:57.233Z,17.40
2022-11-06T16:14:58.231Z,15.90
2022-11-06T16:20:13.291Z,25.02
2022-11-06T16:25:18.392Z,12.82
2022-11-06T16:30:25.760Z,13.45
2022-11-06T16:35:35.522Z,14.68
2022-11-06T16:40:49.544Z,11.85
2022-11-06T16:46:07.259Z,14.60
2022-11-06T16:51:30.428Z,12.77
2022-11-06T16:56:34.605Z,15.40
2022-11-06T17:01:38.719Z,15.48
2022-11-06T17:06:43.651Z,12.82
2022-11-06T17:11:50.061Z,18.77
2022-11-06T17:17:06.389Z,16.77
2022-11-06T17:22:10.686Z,16.33
2022-11-06T17:27:14.496Z,17.98
2022-11-06T17:32:15.246Z,14.13
2022-11-06T17:37:17.846Z,26.17
2022-11-06T17:42:22.487Z,15.43
2022-11-06T17:47:23.521Z,19.40
2022-11-06T17:52:24.485Z,20.50
2022-11-06T17:57:28.138Z,18.52
2022-11-06T18:02:59.023Z,16.67
2022-11-06T18:08:01.250Z,22.25
2022-11-06T18:13:02.050Z,18.98
2022-11-06T18:18:07.133Z,21.35
2022-11-06T18:23:07.867Z,14.52
2022-11-06T18:28:09.431Z,15.38
2022-11-06T18:33:10.148Z,16.23
2022-11-06T18:38:17.956Z,15.07
2022-11-06T18:43:19.238Z,14.20
2022-11-06T18:48:21.892Z,17.30
2022-11-06T18:53:23.330Z,14.80
2022-11-06T18:58:28.109Z,11.00
2022-11-06T19:03:29.110Z,14.75
2022-11-06T19:08:31.009Z,15.38
2022-11-06T19:13:31.892Z,11.93
2022-11-06T19:18:38.990Z,17.70
2022-11-06T19:23:42.179Z,10.45
2022-11-06T19:28:43.856Z,10.32
2022-11-06T19:33:57.324Z,11.68
2022-11-06T19:38:58.968Z,14.60
2022-11-06T19:44:04.097Z,14.25
2022-11-06T19:49:06.834Z,8.95
2022-11-06T19:54:08.890Z,10.18
2022-11-06T19:59:12.064Z,28.12
2022-11-06T20:04:13.528Z,22.83
2022-11-06T20:09:14.444Z,13.25
2022-11-06T20:14:17.804Z,20.15
2022-11-06T20:19:18.722Z,17.00
2022-11-06T20:24:19.584Z,11.57
2022-11-06T20:29:23.597Z,9.80
2022-11-06T20:34:24.857Z,7.10
2022-11-06T20:39:25.846Z,12.43
2022-11-06T20:44:26.629Z,6.53
2022-11-06T20:49:28.108Z,6.50
2022-11-06T20:54:28.946Z,8.43
2022-11-06T20:59:30.381Z,8.32
2022-11-06T21:04:31.390Z,9.25
2022-11-06T21:09:39.295Z,8.10
2022-11-06T21:14:43.099Z,7.95
2022-11-06T21:19:44.488Z,7.72
2022-11-06T21:24:45.264Z,11.45
2022-11-06T21:29:56.319Z,5.12
2022-11-06T21:35:00.221Z,9.20
2022-11-06T21:40:04.225Z,8.38
2022-11-06T21:45:05.672Z,6.93
2022-11-06T21:50:09.857Z,8.45
2022-11-06T21:55:29.164Z,10.05
2022-11-06T22:00:30.063Z,7.95
2022-11-06T22:05:31.089Z,8.55
2022-11-06T22:10:37.960Z,6.03
2022-11-06T22:15:42.072Z,11.73
2022-11-06T22:20:42.788Z,8.43
2022-11-06T22:25:43.536Z,7.78
2022-11-06T22:30:47.413Z,6.85
2022-11-06T22:35:48.127Z,10.32
2022-11-06T22:40:57.840Z,9.27
2022-11-06T22:46:00.275Z,10.40
2022-11-06T22:51:06.235Z,9.27
2022-11-06T22:56:14.577Z,9.55
2022-11-06T23:01:20.678Z,9.07
2022-11-06T23:06:22.885Z,9.23
2022-11-06T23:11:26.074Z,9.50
2022-11-06T23:16:51.273Z,11.00
2022-11-06T23:22:34.830Z,9.02
2022-11-06T23:27:38.671Z,11.07
2022-11-06T23:32:46.248Z,9.68
2022-11-06T23:38:06.576Z,13.82
2022-11-06T23:48:12.508Z,10.95
2022-11-06T23:53:15.445Z,14.10
